VTBD Airport Information

Runway Information
Runway 03L Length 12139 ft width 197 ft
Elevation 7 ft Threshold 0 ft Heading 29
Runway 21R Length 12139 ft Width 197 ft
Elevation 7 ft Threshold 0 ft Heading 209
Runway 03R Length 11483 ft width 148 ft
Elevation 7 ft Threshold 0 ft Heading 29
Runway 21L Length 11483 ft Width 148 ft
Elevation 8 ft Threshold 1148 ft Heading 209
Airport Frequencies
Type APP Name APP Frequency 119.4 MHZ
Type ARR Name ARR Frequency 125.5 MHZ
Type ATIS Name ATIS Frequency 126.4 MHZ
Type CLD Name CLNC DEL Frequency 125.95 MHZ
Type GND Name GND Frequency 121.9 MHZ
Type TWR Name TWR Frequency 118.1 MHZ
Airport Navaids
Type NDB Name Bangkok Frequency 293 KHZ
Type VOR-DME Name Bangkok Frequency 117700 KHZ
Airport Weather Information & NOTAM
ADDS - METARS form results

(2012 UTC 13 June 2021)
Data provider http://aviationweather.gov/metar/data/
 
METAR text: VTBD 132000Z 10003KT 9999 FEW020 SCT090 26/26 Q1007 NOSIG
Conditions at: VTBD (BANGKOK/DON MUAN, TH) observed 2000 UTC 13 June 2021
Temperature: 26.0°C (79°F)
Dewpoint: 26.0°C (79°F) [RH = 100%]
Pressure (altimeter): 29.73 inches Hg (1007.0 mb)
Winds: from the E (100 degrees) at 3 MPH (3 knots; 1.5 m/s)
Visibility: 6 or more miles (10+ km)
Ceiling: at least 12,000 feet AGL
Clouds: few clouds at 2000 feet AGL
scattered clouds at 9000 feet AGL
Weather: no significant weather observed at this time

METAR text: VTBD 131930Z 00000KT 9999 FEW020 SCT090 26/26 Q1007 NOSIG
Conditions at: VTBD (BANGKOK/DON MUAN, TH) observed 1930 UTC 13 June 2021
Temperature: 26.0°C (79°F)
Dewpoint: 26.0°C (79°F) [RH = 100%]
Pressure (altimeter): 29.73 inches Hg (1007.0 mb)
Winds: calm
Visibility: 6 or more miles (10+ km)
Ceiling: at least 12,000 feet AGL
Clouds: few clouds at 2000 feet AGL
scattered clouds at 9000 feet AGL
Weather: no significant weather observed at this time

Forecast for: VTBD (BANGKOK/DON MUAN, TH)
Text: TAF VTBD 131700Z 1318/1424 24008KT 9000 FEW020 SCT080
Forecast period: 1800 UTC 13 June 2021 to 0000 UTC 15 June 2021
Forecast type: FROM: standard forecast or significant change
Winds: from the WSW (240 degrees) at 9 MPH (8 knots; 4.1 m/s)
Visibility: 6 miles (9 km)
Ceiling: at least 12,000 feet AGL
Clouds: few clouds at 2000 feet AGL
scattered clouds at 8000 feet AGL
Weather: no significant weather forecast for this period
Text: TEMPO 1408/1412 28015G30KT 3000 TSRA FEW018CB SCT030 BKN100
Forecast period: 0800 to 1200 UTC 14 June 2021
Forecast type: TEMPORARY: The following changes expected for less than half the time period
Winds: from the W (280 degrees) at 17 MPH (15 knots; 7.7 m/s)
gusting to 34 MPH (30 knots; 15.4 m/s)
Visibility: 1.86 miles (2.99 km)
Ceiling: 10000 feet AGL
Clouds: few clouds at 1800 feet AGL
scattered clouds at 3000 feet AGL
broken clouds at 10000 feet AGL
Weather: TSRA  (rain associated with thunderstorm(s))